createdAt,value
2022-12-08T00:01:06.578Z,86.32
2022-12-08T00:03:33.869Z,86.56
2022-12-08T00:06:21.721Z,86.24
2022-12-08T00:09:07.355Z,86.38
2022-12-08T00:11:34.578Z,86.47
2022-12-08T00:14:01.797Z,86.47
2022-12-08T00:16:28.897Z,86.22
2022-12-08T00:18:55.770Z,86.83
2022-12-08T00:21:22.595Z,86.64
2022-12-08T00:23:49.480Z,86.84
2022-12-08T00:26:16.366Z,86.51
2022-12-08T00:28:43.570Z,86.35
2022-12-08T00:31:11.940Z,86.80
2022-12-08T00:33:38.809Z,87.15
2022-12-08T00:36:07.618Z,86.90
2022-12-08T00:38:34.408Z,87.55
2022-12-08T00:41:01.199Z,87.98
2022-12-08T00:43:28.083Z,86.96
2022-12-08T00:45:54.920Z,87.46
2022-12-08T00:48:21.820Z,87.19
2022-12-08T00:50:48.564Z,87.10
2022-12-08T00:53:15.398Z,86.97
2022-12-08T00:55:43.410Z,86.70
2022-12-08T00:58:10.237Z,86.90
2022-12-08T01:00:36.924Z,87.17
2022-12-08T01:03:03.864Z,87.53
2022-12-08T01:05:30.688Z,87.94
2022-12-08T01:07:57.481Z,87.87
2022-12-08T01:10:24.436Z,87.43
2022-12-08T01:12:51.202Z,87.00
2022-12-08T01:15:18.035Z,86.49
2022-12-08T01:17:44.824Z,86.90
2022-12-08T01:20:12.104Z,87.12
2022-12-08T01:22:38.967Z,86.51
2022-12-08T01:25:06.005Z,86.41
2022-12-08T01:27:32.804Z,86.65
2022-12-08T01:29:59.642Z,86.47
2022-12-08T01:32:26.446Z,86.64
2022-12-08T01:34:53.242Z,86.34
2022-12-08T01:37:20.127Z,86.09
2022-12-08T01:39:46.931Z,86.47
2022-12-08T01:42:23.568Z,86.17
2022-12-08T01:44:55.845Z,86.80
2022-12-08T01:47:26.562Z,86.38
2022-12-08T01:49:53.658Z,86.34
2022-12-08T01:52:36.970Z,86.39
2022-12-08T01:55:12.518Z,86.82
2022-12-08T01:57:47.046Z,86.95
2022-12-08T02:00:16.765Z,87.19
2022-12-08T02:02:58.491Z,86.75
2022-12-08T02:05:28.607Z,86.53
2022-12-08T02:07:57.563Z,86.99
2022-12-08T02:10:29.195Z,86.37
2022-12-08T02:12:59.043Z,86.99
2022-12-08T02:15:46.177Z,86.15
2022-12-08T02:18:28.020Z,86.66
2022-12-08T02:21:02.804Z,87.29
2022-12-08T02:23:54.519Z,88.08
2022-12-08T02:27:07.859Z,88.14
2022-12-08T02:29:59.488Z,88.25
2022-12-08T02:32:45.723Z,88.14
2022-12-08T02:35:25.762Z,87.70
2022-12-08T02:38:08.929Z,87.91
2022-12-08T02:40:35.605Z,87.42
2022-12-08T02:43:37.448Z,87.82
2022-12-08T02:46:31.296Z,87.80
2022-12-08T02:48:59.323Z,87.71
2022-12-08T02:51:26.437Z,87.47
2022-12-08T02:53:53.539Z,87.76
2022-12-08T02:57:07.836Z,88.38
2022-12-08T03:00:09.316Z,88.38
2022-12-08T03:02:50.371Z,87.99
2022-12-08T03:05:23.363Z,87.90
2022-12-08T03:08:06.259Z,88.01
2022-12-08T03:10:43.597Z,88.43
2022-12-08T03:13:14.918Z,88.63
2022-12-08T03:15:46.320Z,87.80
2022-12-08T03:18:16.698Z,87.91
2022-12-08T03:20:46.798Z,87.51
2022-12-08T03:23:16.042Z,88.08
2022-12-08T03:26:09.140Z,88.14
2022-12-08T03:28:36.002Z,88.33
2022-12-08T03:31:07.759Z,88.66
2022-12-08T03:33:40.116Z,88.82
2022-12-08T03:36:09.844Z,89.68
2022-12-08T03:38:42.888Z,89.34
2022-12-08T03:41:19.700Z,89.32
2022-12-08T03:43:54.459Z,89.49
2022-12-08T03:48:50.283Z,89.71
2022-12-08T03:51:17.357Z,89.23
2022-12-08T03:53:44.448Z,89.46
2022-12-08T03:56:32.039Z,88.87
2022-12-08T03:58:59.563Z,89.27
2022-12-08T04:01:27.555Z,89.04
2022-12-08T04:03:54.879Z,89.25
2022-12-08T04:06:22.196Z,89.09
2022-12-08T04:08:50.277Z,89.56
2022-12-08T04:11:17.359Z,90.14
2022-12-08T04:13:44.539Z,90.05
2022-12-08T04:16:24.116Z,89.84
2022-12-08T04:18:51.449Z,89.96
2022-12-08T04:21:18.569Z,90.13
2022-12-08T04:23:46.289Z,90.32
2022-12-08T04:26:14.036Z,90.91
2022-12-08T04:28:40.818Z,90.72
2022-12-08T04:31:08.152Z,90.06
2022-12-08T04:33:35.458Z,90.43
2022-12-08T04:36:04.408Z,90.30
2022-12-08T04:38:31.538Z,90.07
2022-12-08T04:40:58.338Z,90.48
2022-12-08T04:43:25.204Z,90.82
2022-12-08T04:45:52.121Z,90.72
2022-12-08T04:48:19.208Z,90.87
2022-12-08T04:50:46.477Z,90.56
2022-12-08T04:53:13.682Z,90.80
2022-12-08T04:55:45.516Z,91.02
2022-12-08T04:58:14.795Z,90.54
2022-12-08T05:00:42.438Z,90.54
2022-12-08T05:03:09.997Z,90.24
2022-12-08T05:05:36.956Z,90.23
2022-12-08T05:08:06.139Z,90.29
2022-12-08T05:10:33.485Z,90.47
2022-12-08T05:13:00.724Z,91.10
2022-12-08T05:15:27.727Z,91.74
2022-12-08T05:17:55.173Z,91.71
2022-12-08T05:20:22.276Z,91.04
2022-12-08T05:22:49.235Z,91.11
2022-12-08T05:25:16.167Z,90.61
2022-12-08T05:27:43.584Z,90.95
2022-12-08T05:30:10.485Z,90.79
2022-12-08T05:32:37.288Z,90.85
2022-12-08T05:35:04.258Z,90.50
2022-12-08T05:37:31.082Z,90.17
2022-12-08T05:39:57.843Z,89.54
2022-12-08T05:42:25.213Z,89.92
2022-12-08T05:44:52.537Z,89.58
2022-12-08T05:47:19.765Z,89.67
2022-12-08T05:49:46.724Z,89.60
2022-12-08T05:52:13.443Z,89.45
2022-12-08T05:54:40.155Z,89.21
2022-12-08T05:57:07.017Z,90.10
2022-12-08T05:59:33.884Z,90.02
2022-12-08T06:02:01.000Z,89.93
2022-12-08T06:04:28.003Z,89.95
2022-12-08T06:06:54.883Z,90.17
2022-12-08T06:16:43.304Z,90.57
2022-12-08T06:19:10.151Z,90.67
2022-12-08T06:21:36.946Z,91.56
2022-12-08T06:24:03.798Z,90.75
2022-12-08T06:26:30.585Z,90.50
2022-12-08T06:28:57.356Z,90.83
2022-12-08T06:31:26.458Z,90.42
2022-12-08T06:33:55.089Z,89.48
2022-12-08T06:36:24.674Z,89.66
2022-12-08T06:38:52.327Z,90.26
2022-12-08T06:41:19.319Z,90.07
2022-12-08T06:43:46.313Z,89.64
2022-12-08T06:46:17.702Z,90.35
2022-12-08T06:48:44.912Z,90.67
2022-12-08T06:51:17.913Z,90.59
2022-12-08T06:53:45.752Z,90.67
2022-12-08T06:56:14.194Z,89.64
2022-12-08T06:58:40.952Z,89.76
2022-12-08T07:01:13.019Z,89.54
2022-12-08T07:03:41.072Z,89.82
2022-12-08T07:06:08.196Z,89.33
2022-12-08T07:08:35.563Z,89.70
2022-12-08T07:11:18.017Z,89.72
2022-12-08T07:13:47.836Z,89.54
2022-12-08T07:16:14.747Z,89.00
2022-12-08T07:18:43.131Z,89.45
2022-12-08T07:21:12.430Z,89.98
2022-12-08T07:23:39.589Z,88.91
2022-12-08T07:26:08.787Z,88.94
2022-12-08T07:28:38.718Z,89.27
2022-12-08T07:31:06.941Z,89.68
2022-12-08T07:33:36.265Z,90.09
2022-12-08T07:36:05.425Z,89.87
2022-12-08T07:38:32.452Z,89.96
2022-12-08T07:41:00.155Z,90.35
2022-12-08T07:43:27.117Z,89.91
2022-12-08T07:45:54.161Z,90.42
2022-12-08T07:48:21.080Z,90.28
2022-12-08T07:50:48.007Z,91.38
2022-12-08T07:53:14.995Z,91.19
2022-12-08T07:55:43.081Z,90.92
2022-12-08T07:58:10.832Z,90.96
2022-12-08T08:00:38.022Z,91.07
2022-12-08T08:03:04.930Z,91.24
2022-12-08T08:05:31.868Z,90.95
2022-12-08T08:07:58.746Z,90.68
2022-12-08T08:10:25.798Z,90.95
2022-12-08T08:12:52.674Z,90.69
2022-12-08T08:15:21.291Z,90.86
2022-12-08T08:17:53.585Z,90.45
2022-12-08T08:20:21.385Z,90.43
2022-12-08T08:22:49.945Z,90.31
2022-12-08T08:25:18.306Z,90.40
2022-12-08T08:27:45.546Z,90.34
2022-12-08T08:30:20.101Z,90.82
2022-12-08T08:32:47.626Z,91.15
2022-12-08T08:35:14.711Z,90.61
2022-12-08T08:37:45.764Z,90.83
2022-12-08T08:40:15.705Z,90.53
2022-12-08T08:42:42.546Z,89.86
2022-12-08T08:45:09.754Z,90.31
2022-12-08T08:47:36.638Z,89.85
2022-12-08T08:50:04.319Z,90.62
2022-12-08T08:52:31.345Z,90.75
2022-12-08T08:54:58.089Z,90.66
2022-12-08T08:57:26.054Z,90.67
2022-12-08T08:59:53.673Z,91.67
2022-12-08T09:02:21.384Z,90.36
2022-12-08T09:04:48.532Z,90.48
2022-12-08T09:07:16.334Z,90.11
2022-12-08T09:09:43.316Z,89.50
2022-12-08T09:12:11.145Z,89.61
2022-12-08T09:14:38.073Z,88.35
2022-12-08T09:17:05.507Z,90.05
2022-12-08T09:19:32.489Z,89.15
2022-12-08T09:21:59.267Z,89.94
2022-12-08T09:24:26.519Z,89.08
2022-12-08T09:26:53.558Z,88.79
